createdAt,value
2022-10-11T00:00:34.984Z,12.60
2022-10-11T00:03:03.302Z,10.30
2022-10-11T00:05:31.227Z,11.97
2022-10-11T00:07:58.662Z,12.83
2022-10-11T00:10:25.951Z,11.90
2022-10-11T00:12:52.968Z,9.57
2022-10-11T00:15:22.046Z,11.57
2022-10-11T00:17:49.656Z,11.60
2022-10-11T00:20:17.092Z,10.87
2022-10-11T00:22:45.000Z,13.50
2022-10-11T00:25:13.316Z,11.77
2022-10-11T00:27:40.344Z,13.27
2022-10-11T00:30:09.308Z,12.50
2022-10-11T00:32:38.339Z,9.10
2022-10-11T00:35:07.628Z,10.77
2022-10-11T00:37:37.175Z,9.93
2022-10-11T00:40:14.248Z,7.80
2022-10-11T00:42:42.781Z,13.03
2022-10-11T00:45:28.045Z,8.10
2022-10-11T00:48:04.772Z,13.53
2022-10-11T00:50:35.165Z,12.47
2022-10-11T00:53:09.984Z,11.73
2022-10-11T00:55:48.054Z,7.67
2022-10-11T00:58:17.145Z,8.97
2022-10-11T01:00:44.820Z,10.73
2022-10-11T01:03:11.855Z,8.97
2022-10-11T01:05:39.934Z,13.30
2022-10-11T01:08:08.498Z,8.07
2022-10-11T01:10:35.913Z,8.77
2022-10-11T01:13:17.252Z,8.93
2022-10-11T01:16:19.360Z,8.93
2022-10-11T01:19:14.914Z,11.47
2022-10-11T01:21:59.652Z,9.43
2022-10-11T01:25:06.217Z,11.77
2022-10-11T01:27:53.248Z,9.53
2022-10-11T01:30:28.120Z,10.37
2022-10-11T01:33:25.203Z,11.10
2022-10-11T01:36:27.989Z,9.23
2022-10-11T01:39:20.978Z,10.00
2022-10-11T01:41:52.583Z,10.57
2022-10-11T01:44:20.668Z,6.90
2022-10-11T01:46:47.687Z,8.20
2022-10-11T01:49:14.629Z,9.87
2022-10-11T01:51:47.695Z,10.27
2022-10-11T01:55:07.601Z,10.83
2022-10-11T01:57:49.555Z,8.40
2022-10-11T02:00:37.742Z,8.77
2022-10-11T02:03:29.247Z,11.57
2022-10-11T02:06:17.974Z,13.53
2022-10-11T02:09:10.837Z,10.30
2022-10-11T02:11:39.051Z,12.47
2022-10-11T02:14:15.899Z,9.27
2022-10-11T02:17:04.172Z,10.53
2022-10-11T02:19:38.718Z,8.57
2022-10-11T02:22:15.121Z,17.70
2022-10-11T02:24:46.417Z,10.90
2022-10-11T02:27:15.654Z,10.70
2022-10-11T02:29:45.222Z,11.47
2022-10-11T02:32:13.967Z,10.83
2022-10-11T02:34:55.174Z,6.43
2022-10-11T02:37:42.132Z,8.63
2022-10-11T02:40:24.691Z,7.27
2022-10-11T02:43:06.234Z,10.37
2022-10-11T02:45:43.387Z,8.40
2022-10-11T02:48:12.580Z,12.73
2022-10-11T02:50:41.571Z,8.83
2022-10-11T02:53:09.479Z,10.73
2022-10-11T02:55:36.832Z,8.13
2022-10-11T02:58:03.911Z,7.53
2022-10-11T03:00:31.283Z,9.43
2022-10-11T03:02:58.317Z,12.53
2022-10-11T03:05:25.348Z,10.17
2022-10-11T03:07:52.344Z,8.20
2022-10-11T03:10:19.333Z,9.47
2022-10-11T03:12:46.386Z,11.97
2022-10-11T03:15:13.444Z,9.63
2022-10-11T03:17:40.429Z,8.97
2022-10-11T03:20:08.217Z,8.03
2022-10-11T03:22:35.316Z,9.03
2022-10-11T03:25:04.377Z,8.10
2022-10-11T03:27:33.266Z,9.33
2022-10-11T03:30:00.953Z,10.60
2022-10-11T03:32:28.734Z,7.13
2022-10-11T03:34:55.924Z,7.47
2022-10-11T03:37:23.075Z,10.60
2022-10-11T03:39:50.322Z,8.40
2022-10-11T03:42:17.342Z,9.47
2022-10-11T03:44:44.321Z,7.50
2022-10-11T03:47:11.505Z,10.20
2022-10-11T03:49:43.814Z,10.20
2022-10-11T03:52:12.071Z,9.87
2022-10-11T03:54:48.861Z,8.80
2022-10-11T03:57:16.141Z,11.30
2022-10-11T03:59:43.118Z,9.03
2022-10-11T04:02:10.397Z,13.30
2022-10-11T04:04:37.587Z,9.73
2022-10-11T04:07:04.703Z,8.90
2022-10-11T04:09:31.814Z,9.23
2022-10-11T04:11:59.000Z,8.67
2022-10-11T04:14:27.028Z,8.77
2022-10-11T04:16:56.427Z,9.27
2022-10-11T04:19:26.736Z,8.60
2022-10-11T04:21:53.753Z,10.50
2022-10-11T04:24:20.780Z,8.37
2022-10-11T04:26:48.090Z,8.63
2022-10-11T04:29:15.493Z,10.43
2022-10-11T04:31:42.542Z,8.37
2022-10-11T04:34:09.514Z,11.37
2022-10-11T04:36:36.680Z,12.63
2022-10-11T04:39:03.829Z,10.43
2022-10-11T04:41:30.845Z,10.73
2022-10-11T04:43:58.035Z,11.73
2022-10-11T04:46:25.571Z,11.23
2022-10-11T04:48:52.723Z,11.17
2022-10-11T04:51:20.301Z,11.37
2022-10-11T04:53:49.277Z,10.33
2022-10-11T04:56:18.557Z,6.90
2022-10-11T04:58:49.443Z,12.47
2022-10-11T05:01:16.560Z,8.93
2022-10-11T05:03:43.567Z,8.17
2022-10-11T05:06:11.084Z,10.27
2022-10-11T05:08:38.560Z,8.00
2022-10-11T05:11:10.907Z,7.90
2022-10-11T05:13:38.098Z,8.57
2022-10-11T05:16:10.558Z,10.53
2022-10-11T05:18:39.083Z,9.73
2022-10-11T05:21:21.826Z,9.70
2022-10-11T05:23:51.674Z,9.63
2022-10-11T05:26:20.337Z,8.60
2022-10-11T05:28:48.135Z,8.87
2022-10-11T05:31:16.489Z,10.47
2022-10-11T05:33:43.645Z,9.77
2022-10-11T05:36:11.060Z,9.83
2022-10-11T05:38:38.656Z,13.80
2022-10-11T05:41:06.715Z,8.97
2022-10-11T05:43:33.659Z,9.43
2022-10-11T05:46:00.784Z,9.17
2022-10-11T05:48:28.755Z,11.10
2022-10-11T05:51:05.246Z,9.10
2022-10-11T05:53:33.289Z,10.03
2022-10-11T05:56:00.755Z,9.27
2022-10-11T05:58:28.659Z,12.90
2022-10-11T06:00:56.951Z,12.67
2022-10-11T06:03:24.487Z,13.50
2022-10-11T06:05:56.476Z,10.37
2022-10-11T06:08:24.107Z,8.73
2022-10-11T06:10:51.106Z,11.97
2022-10-11T06:13:18.494Z,10.60
2022-10-11T06:15:45.479Z,10.60
2022-10-11T06:18:12.437Z,8.50
2022-10-11T06:20:39.431Z,10.87
2022-10-11T06:23:06.445Z,9.47
2022-10-11T06:25:33.538Z,13.17
2022-10-11T06:28:00.632Z,9.53
2022-10-11T06:30:27.725Z,12.60
2022-10-11T06:32:54.797Z,10.33
2022-10-11T06:35:21.789Z,12.43
2022-10-11T06:37:48.881Z,12.23
2022-10-11T06:40:16.198Z,11.33
2022-10-11T06:42:43.299Z,8.67
2022-10-11T06:45:10.592Z,11.67
2022-10-11T06:47:37.750Z,9.63
2022-10-11T06:50:06.313Z,12.33
2022-10-11T06:52:33.306Z,13.37
2022-10-11T06:55:00.229Z,11.17
2022-10-11T06:57:29.318Z,11.73
2022-10-11T06:59:56.643Z,10.10
2022-10-11T07:02:23.770Z,12.47
2022-10-11T07:04:50.905Z,13.03
2022-10-11T07:07:18.080Z,14.50
2022-10-11T07:09:45.060Z,14.10
2022-10-11T07:12:12.058Z,12.67
2022-10-11T07:14:39.735Z,12.17
2022-10-11T07:17:07.054Z,11.87
2022-10-11T07:19:34.356Z,12.53
2022-10-11T07:22:01.385Z,12.47
2022-10-11T07:24:28.472Z,10.37
2022-10-11T07:26:55.571Z,10.63
2022-10-11T07:29:23.022Z,8.90
2022-10-11T07:31:50.629Z,9.63
2022-10-11T07:34:22.480Z,10.43
2022-10-11T07:36:49.631Z,14.43
2022-10-11T07:39:16.641Z,12.87
2022-10-11T07:41:46.023Z,10.40
2022-10-11T07:44:14.641Z,9.63
2022-10-11T07:46:41.875Z,10.20
2022-10-11T07:49:08.941Z,14.03
2022-10-11T07:51:35.981Z,15.50
2022-10-11T07:54:31.883Z,14.33
2022-10-11T07:56:58.904Z,16.40
2022-10-11T07:59:26.133Z,19.07
2022-10-11T08:01:53.272Z,18.73
2022-10-11T08:04:21.488Z,15.27
2022-10-11T08:06:52.529Z,14.17
2022-10-11T08:09:20.545Z,14.57
2022-10-11T08:11:47.499Z,19.10
2022-10-11T08:14:14.503Z,17.07
2022-10-11T08:16:41.669Z,15.80
2022-10-11T08:19:10.438Z,15.57
2022-10-11T08:21:37.496Z,20.73
2022-10-11T08:24:06.280Z,19.43
2022-10-11T08:26:34.050Z,17.30
2022-10-11T08:29:03.531Z,19.53
2022-10-11T08:31:31.413Z,20.53
2022-10-11T08:33:58.672Z,18.70
2022-10-11T08:36:25.986Z,14.83
2022-10-11T08:38:53.085Z,18.53
2022-10-11T08:41:27.789Z,19.93
2022-10-11T08:44:10.525Z,16.20
2022-10-11T08:46:43.497Z,17.73
2022-10-11T08:49:13.691Z,11.93
2022-10-11T08:51:52.690Z,15.70
2022-10-11T08:54:30.979Z,19.15
2022-10-11T08:56:58.216Z,11.48
2022-10-11T08:59:51.257Z,15.55
2022-10-11T09:03:06.368Z,15.02
2022-10-11T09:05:34.073Z,15.48
2022-10-11T09:08:23.793Z,14.35
2022-10-11T09:11:32.123Z,17.02
2022-10-11T09:14:22.630Z,11.75
2022-10-11T09:17:14.581Z,17.30
2022-10-11T09:20:34.320Z,16.63
2022-10-11T09:23:32.219Z,14.73
2022-10-11T09:26:30.325Z,13.65
2022-10-11T09:29:15.935Z,15.48
2022-10-11T09:31:53.442Z,11.40
2022-10-11T09:34:25.434Z,8.80
2022-10-11T09:37:37.453Z,13.90
2022-10-11T09:40:10.458Z,17.67
2022-10-11T09:42:37.703Z,14.90
2022-10-11T09:45:21.048Z,17.13
2022-10-11T09:47:52.730Z,9.45
2022-10-11T09:50:26.041Z,16.75
2022-10-11T09:53:00.323Z,12.10
2022-10-11T09:55:53.168Z,10.48
2022-10-11T09:58:36.043Z,10.10
2022-10-11T10:01:16.642Z,10.50
2022-10-11T10:03:46.592Z,13.25
2022-10-11T10:06:28.404Z,11.73
2022-10-11T10:09:15.299Z,8.63
2022-10-11T10:11:42.277Z,13.50
2022-10-11T10:14:30.135Z,8.77
2022-10-11T10:17:13.913Z,7.57
2022-10-11T10:19:51.170Z,6.80
2022-10-11T10:22:27.437Z,10.85
2022-10-11T10:24:56.759Z,9.85
2022-10-11T10:27:30.381Z,6.68
2022-10-11T10:30:15.992Z,7.53
2022-10-11T10:33:07.106Z,8.02
2022-10-11T10:35:46.238Z,7.57
2022-10-11T10:38:26.460Z,7.40
2022-10-11T10:41:12.772Z,6.82
2022-10-11T10:43:42.900Z,7.22
2022-10-11T10:46:12.845Z,8.23
2022-10-11T10:49:41.170Z,10.52
2022-10-11T10:52:05.927Z,10.45
2022-10-11T10:55:14.071Z,7.30
2022-10-11T10:58:15.171Z,9.23
2022-10-11T11:01:23.962Z,7.60
2022-10-11T11:04:18.784Z,9.20
2022-10-11T11:06:59.395Z,11.07
2022-10-11T11:09:46.819Z,7.85
2022-10-11T11:12:44.609Z,8.15
2022-10-11T11:15:44.025Z,9.82
2022-10-11T11:18:22.169Z,12.05
2022-10-11T11:21:31.963Z,8.45
2022-10-11T11:24:41.882Z,9.07
2022-10-11T11:27:40.719Z,6.57
2022-10-11T11:30:19.008Z,6.32
2022-10-11T11:33:38.967Z,7.55
2022-10-11T11:36:23.449Z,8.43
2022-10-11T11:39:01.744Z,6.60
2022-10-11T11:41:51.408Z,4.68
2022-10-11T11:44:40.243Z,5.03
2022-10-11T11:47:34.120Z,7.35
2022-10-11T11:50:23.528Z,7.20
2022-10-11T11:53:00.763Z,7.45
2022-10-11T11:55:55.223Z,8.75
2022-10-11T11:59:10.208Z,7.57
2022-10-11T12:02:09.027Z,10.35
2022-10-11T12:04:41.984Z,8.82
2022-10-11T12:07:16.658Z,5.60
2022-10-11T12:09:52.862Z,6.65
2022-10-11T12:12:37.541Z,6.25
2022-10-11T12:15:24.620Z,6.93
2022-10-11T12:17:57.690Z,10.77
2022-10-11T12:20:31.568Z,7.93
2022-10-11T12:23:29.417Z,10.98
2022-10-11T12:26:28.405Z,12.60
2022-10-11T12:29:06.038Z,8.55
2022-10-11T12:31:39.363Z,9.15
2022-10-11T12:34:43.223Z,5.95
2022-10-11T12:37:22.487Z,6.88
2022-10-11T12:39:54.860Z,5.70
2022-10-11T12:42:29.180Z,8.95
2022-10-11T12:45:11.974Z,9.38
2022-10-11T12:48:22.894Z,7.05
2022-10-11T12:51:28.436Z,13.40
2022-10-11T12:54:36.859Z,9.48
2022-10-11T12:57:45.317Z,7.78
2022-10-11T13:00:34.833Z,7.97
2022-10-11T13:03:26.198Z,10.40
2022-10-11T13:06:01.452Z,11.60
2022-10-11T13:08:39.493Z,8.57
2022-10-11T13:11:16.481Z,7.70
2022-10-11T13:13:58.935Z,7.57
2022-10-11T13:17:00.997Z,7.43
2022-10-11T13:19:29.318Z,6.53
2022-10-11T13:22:01.683Z,6.53
2022-10-11T13:24:39.792Z,6.75
2022-10-11T13:27:08.138Z,6.72
2022-10-11T13:29:39.693Z,6.72
2022-10-11T13:32:16.847Z,7.32
2022-10-11T13:34:49.590Z,7.28
2022-10-11T13:37:24.383Z,11.18
2022-10-11T13:39:56.571Z,7.35
2022-10-11T13:42:31.940Z,7.35
2022-10-11T13:45:00.738Z,9.07
2022-10-11T13:47:30.805Z,7.90
2022-10-11T13:50:35.448Z,3.92
2022-10-11T13:53:09.856Z,7.05
2022-10-11T13:55:56.111Z,8.40
2022-10-11T13:58:45.004Z,8.13
2022-10-11T14:01:26.826Z,4.43
2022-10-11T14:04:00.551Z,10.18
2022-10-11T14:06:56.117Z,8.70
2022-10-11T14:09:37.051Z,5.70
2022-10-11T14:12:28.652Z,6.85
2022-10-11T14:14:55.674Z,12.68
2022-10-11T14:17:43.832Z,9.43
2022-10-11T14:20:28.443Z,10.20
2022-10-11T14:22:59.396Z,6.65
2022-10-11T14:25:26.702Z,15.27
2022-10-11T14:27:54.653Z,5.97
2022-10-11T14:30:26.670Z,7.50
2022-10-11T14:33:01.222Z,3.97
2022-10-11T14:35:31.844Z,6.43
2022-10-11T14:37:59.352Z,7.80
2022-10-11T14:40:31.131Z,5.38
2022-10-11T14:42:58.262Z,7.78
2022-10-11T14:45:25.665Z,7.00
2022-10-11T14:47:52.782Z,7.18
2022-10-11T14:50:31.950Z,8.55
2022-10-11T14:52:59.901Z,5.00
2022-10-11T14:55:27.086Z,8.30
2022-10-11T14:57:54.511Z,8.55
2022-10-11T15:00:26.460Z,5.80
2022-10-11T15:02:54.911Z,8.38
2022-10-11T15:05:28.758Z,7.15
2022-10-11T15:07:59.922Z,9.95
2022-10-11T15:10:30.568Z,9.40
2022-10-11T15:12:57.767Z,7.47
2022-10-11T15:15:30.700Z,7.60
2022-10-11T15:18:00.263Z,13.52
2022-10-11T15:20:39.116Z,6.70
2022-10-11T15:23:09.427Z,8.00
2022-10-11T15:25:38.978Z,6.82
2022-10-11T15:28:07.428Z,9.23
2022-10-11T15:30:41.375Z,9.68
2022-10-11T15:33:09.111Z,6.88
2022-10-11T15:35:36.512Z,8.80
2022-10-11T15:38:03.579Z,9.57
2022-10-11T15:40:36.945Z,4.45
2022-10-11T15:43:04.993Z,6.85
2022-10-11T15:45:32.172Z,6.03
2022-10-11T15:47:59.465Z,8.90
2022-10-11T15:50:37.391Z,13.15
2022-10-11T15:53:08.212Z,8.00
2022-10-11T15:55:39.595Z,8.32
2022-10-11T15:58:12.753Z,11.38
2022-10-11T16:00:39.746Z,8.73
2022-10-11T16:03:07.182Z,8.43
2022-10-11T16:05:34.149Z,7.97
2022-10-11T16:08:01.093Z,7.55
2022-10-11T16:10:28.550Z,7.72
2022-10-11T16:12:56.199Z,8.75
2022-10-11T16:15:24.799Z,7.82
2022-10-11T16:17:51.954Z,13.02
2022-10-11T16:20:22.448Z,11.38
2022-10-11T16:22:50.845Z,8.60
2022-10-11T16:25:19.131Z,10.30
2022-10-11T16:27:46.316Z,11.23
2022-10-11T16:30:15.759Z,10.15
2022-10-11T16:32:44.473Z,13.80
2022-10-11T16:35:13.936Z,12.27
2022-10-11T16:37:41.058Z,10.00
2022-10-11T16:40:10.272Z,10.20
2022-10-11T16:42:39.462Z,6.00
2022-10-11T16:45:08.315Z,5.95
2022-10-11T16:47:35.430Z,8.40
2022-10-11T16:50:02.642Z,6.45
2022-10-11T16:52:29.729Z,8.10
2022-10-11T16:54:56.895Z,9.88
2022-10-11T16:57:24.405Z,9.25
2022-10-11T16:59:51.678Z,11.05
2022-10-11T17:02:23.272Z,8.75
2022-10-11T17:04:51.753Z,7.38
2022-10-11T17:07:20.740Z,7.40
2022-10-11T17:09:49.075Z,7.60
2022-10-11T17:12:20.859Z,6.23
2022-10-11T17:14:49.623Z,4.80
2022-10-11T17:17:18.764Z,7.40
2022-10-11T17:19:47.670Z,9.13
2022-10-11T17:22:19.503Z,10.10
2022-10-11T17:24:46.610Z,8.27
2022-10-11T17:27:14.257Z,7.63
2022-10-11T17:29:41.222Z,10.00
2022-10-11T17:32:08.838Z,14.13
2022-10-11T17:34:35.857Z,16.93
2022-10-11T17:37:02.977Z,13.80
2022-10-11T17:39:30.114Z,17.37
2022-10-11T17:41:57.047Z,14.67
2022-10-11T17:44:24.035Z,13.30
2022-10-11T17:46:51.088Z,17.93
2022-10-11T17:49:18.236Z,14.60
2022-10-11T17:51:45.400Z,11.23
2022-10-11T17:54:13.043Z,15.73
2022-10-11T17:56:42.144Z,16.80
2022-10-11T17:59:16.728Z,15.67
2022-10-11T18:01:43.919Z,14.03
2022-10-11T18:04:16.517Z,12.03
2022-10-11T18:06:46.281Z,10.97
2022-10-11T18:09:15.522Z,16.83
2022-10-11T18:11:43.198Z,15.00
2022-10-11T18:14:10.459Z,10.83
2022-10-11T18:16:38.658Z,10.57
2022-10-11T18:19:10.485Z,11.33
2022-10-11T18:21:38.371Z,10.50
2022-10-11T18:24:15.010Z,11.00
2022-10-11T18:26:43.853Z,15.37
2022-10-11T18:29:12.586Z,15.53
2022-10-11T18:31:40.139Z,13.23
2022-10-11T18:34:10.738Z,11.63
2022-10-11T18:36:38.700Z,16.53
2022-10-11T18:39:09.179Z,11.93
2022-10-11T18:41:39.401Z,13.73
2022-10-11T18:44:08.966Z,16.97
2022-10-11T18:46:36.499Z,13.80
2022-10-11T18:49:03.897Z,17.97
2022-10-11T18:51:34.614Z,13.07
2022-10-11T18:54:03.238Z,14.93
2022-10-11T18:56:31.550Z,17.70
2022-10-11T18:58:59.473Z,14.87
2022-10-11T19:01:34.196Z,14.80
2022-10-11T19:04:03.315Z,15.67
2022-10-11T19:06:35.110Z,17.97
2022-10-11T19:09:21.683Z,20.10
2022-10-11T19:11:51.265Z,18.73
2022-10-11T19:14:22.091Z,21.33
2022-10-11T19:16:51.576Z,16.30
2022-10-11T19:19:25.873Z,20.33
2022-10-11T19:21:53.245Z,18.13
2022-10-11T19:24:24.867Z,16.23
2022-10-11T19:26:58.541Z,19.23
2022-10-11T19:29:29.257Z,17.50
2022-10-11T19:32:00.344Z,23.50
2022-10-11T19:34:31.774Z,19.97
2022-10-11T19:37:01.054Z,23.57
2022-10-11T19:39:29.591Z,25.60
2022-10-11T19:41:56.775Z,20.43
2022-10-11T19:44:23.841Z,23.30
2022-10-11T19:46:52.416Z,23.10
2022-10-11T19:49:25.845Z,22.93
2022-10-11T19:51:53.784Z,26.60
2022-10-11T19:54:21.056Z,24.70
2022-10-11T19:56:48.709Z,29.30
2022-10-11T19:59:16.392Z,27.07
2022-10-11T20:01:46.676Z,31.23
2022-10-11T20:04:39.638Z,29.80
2022-10-11T20:07:03.741Z,28.77
2022-10-11T20:09:31.175Z,31.47
2022-10-11T20:11:58.729Z,34.10
2022-10-11T20:14:26.221Z,29.73
2022-10-11T20:16:53.840Z,29.50
2022-10-11T20:19:26.209Z,28.90
2022-10-11T20:21:54.919Z,29.30
2022-10-11T20:24:21.967Z,26.60
2022-10-11T20:26:48.970Z,31.00
2022-10-11T20:29:15.962Z,27.30
2022-10-11T20:31:42.914Z,30.90
2022-10-11T20:34:10.042Z,31.67
2022-10-11T20:36:38.031Z,27.20
2022-10-11T20:39:06.593Z,24.17
2022-10-11T20:41:39.977Z,27.53
2022-10-11T20:44:07.988Z,34.27
2022-10-11T20:46:38.814Z,23.70
2022-10-11T20:49:10.581Z,24.00
2022-10-11T20:51:39.776Z,22.40
2022-10-11T20:54:06.772Z,25.13
2022-10-11T20:56:34.575Z,26.50
2022-10-11T20:59:02.010Z,25.83
2022-10-11T21:01:37.180Z,21.30
2022-10-11T21:04:06.397Z,25.17
2022-10-11T21:06:34.452Z,20.90
2022-10-11T21:09:02.678Z,18.43
2022-10-11T21:11:33.316Z,20.03
2022-10-11T21:14:03.858Z,16.47
2022-10-11T21:16:31.701Z,18.40
2022-10-11T21:19:00.750Z,14.73
2022-10-11T21:21:29.489Z,14.60
2022-10-11T21:23:59.859Z,15.63
2022-10-11T21:26:28.453Z,20.73
2022-10-11T21:28:59.577Z,19.47
2022-10-11T21:31:31.281Z,19.33
2022-10-11T21:34:00.813Z,24.37
2022-10-11T21:36:27.920Z,25.43
2022-10-11T21:38:54.974Z,20.07
2022-10-11T21:41:29.985Z,17.47
2022-10-11T21:43:57.944Z,16.97
2022-10-11T21:46:47.984Z,19.57
2022-10-11T21:49:15.973Z,17.37
2022-10-11T21:51:42.995Z,17.33
2022-10-11T21:54:10.182Z,15.03
2022-10-11T21:56:37.146Z,17.33
2022-10-11T21:59:06.564Z,16.93
2022-10-11T22:01:39.962Z,18.53
2022-10-11T22:04:07.550Z,20.43
2022-10-11T22:06:35.404Z,16.67
2022-10-11T22:09:03.911Z,21.77
2022-10-11T22:11:31.478Z,15.67
2022-10-11T22:13:58.908Z,18.13
2022-10-11T22:16:25.944Z,22.43
2022-10-11T22:18:55.935Z,19.23
2022-10-11T22:21:24.780Z,23.33
2022-10-11T22:23:54.015Z,20.23
2022-10-11T22:26:25.745Z,21.50
2022-10-11T22:28:53.420Z,19.23
2022-10-11T22:31:22.341Z,20.90
2022-10-11T22:33:54.521Z,20.97
2022-10-11T22:36:24.105Z,22.13
2022-10-11T22:38:51.837Z,19.90
2022-10-11T22:41:19.158Z,19.73
2022-10-11T22:43:46.380Z,23.03
2022-10-11T22:46:13.358Z,22.13
2022-10-11T22:48:40.623Z,19.17
2022-10-11T22:51:08.229Z,20.27
2022-10-11T22:53:35.341Z,22.00
2022-10-11T22:56:02.326Z,19.43
2022-10-11T22:58:29.449Z,24.13
2022-10-11T23:00:56.374Z,23.30
2022-10-11T23:03:23.628Z,21.97
2022-10-11T23:05:58.108Z,23.47
2022-10-11T23:08:25.679Z,21.77
2022-10-11T23:10:53.087Z,21.07
2022-10-11T23:13:20.534Z,23.93
2022-10-11T23:15:47.571Z,17.50
2022-10-11T23:18:16.589Z,17.70
2022-10-11T23:20:43.655Z,19.53
2022-10-11T23:23:10.778Z,21.90
2022-10-11T23:25:37.722Z,18.73
2022-10-11T23:28:04.962Z,16.37
2022-10-11T23:30:32.312Z,19.43
2022-10-11T23:32:59.417Z,21.57
2022-10-11T23:35:26.438Z,21.60
2022-10-11T23:37:54.808Z,22.53
2022-10-11T23:40:21.924Z,21.67
2022-10-11T23:42:48.966Z,20.53
2022-10-11T23:45:17.580Z,21.20
2022-10-11T23:47:44.577Z,19.30
2022-10-11T23:50:11.692Z,23.97
2022-10-11T23:52:38.857Z,18.83
2022-10-11T23:55:06.167Z,14.53
2022-10-11T23:57:33.218Z,20.40
